sensor_id;sensor_type;location;lat;lon;timestamp;temperature;humidity
77523;SHT31;66637;-29.628;-49.938;2023-06-22T00:00:20;16.72;84.43
77523;SHT31;66637;-29.628;-49.938;2023-06-22T00:02:53;16.68;84.37
77523;SHT31;66637;-29.628;-49.938;2023-06-22T00:05:27;16.72;84.39
77523;SHT31;66637;-29.628;-49.938;2023-06-22T00:07:58;16.72;84.50
77523;SHT31;66637;-29.628;-49.938;2023-06-22T00:10:42;16.75;84.59
77523;SHT31;66637;-29.628;-49.938;2023-06-22T00:13:16;16.74;84.51
77523;SHT31;66637;-29.628;-49.938;2023-06-22T00:15:53;16.70;84.29
77523;SHT31;66637;-29.628;-49.938;2023-06-22T00:18:23;16.64;84.36
77523;SHT31;66637;-29.628;-49.938;2023-06-22T00:21:01;16.57;84.28
77523;SHT31;66637;-29.628;-49.938;2023-06-22T00:23:33;16.56;84.12
77523;SHT31;66637;-29.628;-49.938;2023-06-22T00:26:05;16.54;83.95
77523;SHT31;66637;-29.628;-49.938;2023-06-22T00:28:39;16.50;83.69
77523;SHT31;66637;-29.628;-49.938;2023-06-22T00:31:12;16.47;83.69
77523;SHT31;66637;-29.628;-49.938;2023-06-22T00:33:45;16.43;83.53
77523;SHT31;66637;-29.628;-49.938;2023-06-22T00:36:20;16.53;83.72
77523;SHT31;66637;-29.628;-49.938;2023-06-22T00:38:52;16.49;83.64
77523;SHT31;66637;-29.628;-49.938;2023-06-22T00:41:23;16.46;83.58
77523;SHT31;66637;-29.628;-49.938;2023-06-22T00:43:59;16.49;83.51
77523;SHT31;66637;-29.628;-49.938;2023-06-22T00:46:32;16.41;83.34
77523;SHT31;66637;-29.628;-49.938;2023-06-22T00:49:03;16.47;83.90
77523;SHT31;66637;-29.628;-49.938;2023-06-22T00:51:37;16.50;83.68
77523;SHT31;66637;-29.628;-49.938;2023-06-22T00:54:12;16.53;83.37
77523;SHT31;66637;-29.628;-49.938;2023-06-22T00:56:44;16.49;83.22
77523;SHT31;66637;-29.628;-49.938;2023-06-22T00:59:20;16.46;83.42
77523;SHT31;66637;-29.628;-49.938;2023-06-22T01:01:57;16.41;83.26
77523;SHT31;66637;-29.628;-49.938;2023-06-22T01:04:57;16.44;83.61
77523;SHT31;66637;-29.628;-49.938;2023-06-22T01:07:40;16.37;83.80
77523;SHT31;66637;-29.628;-49.938;2023-06-22T01:13:37;16.43;83.85
77523;SHT31;66637;-29.628;-49.938;2023-06-22T01:16:31;16.39;83.86
77523;SHT31;66637;-29.628;-49.938;2023-06-22T01:22:05;16.36;84.28
77523;SHT31;66637;-29.628;-49.938;2023-06-22T01:25:13;16.40;84.17
77523;SHT31;66637;-29.628;-49.938;2023-06-22T01:30:53;16.33;84.23
77523;SHT31;66637;-29.628;-49.938;2023-06-22T01:33:57;16.36;84.46
77523;SHT31;66637;-29.628;-49.938;2023-06-22T01:36:31;16.37;84.04
77523;SHT31;66637;-29.628;-49.938;2023-06-22T01:39:05;16.33;83.94
77523;SHT31;66637;-29.628;-49.938;2023-06-22T01:41:42;16.31;83.96
77523;SHT31;66637;-29.628;-49.938;2023-06-22T01:44:17;16.29;84.05
77523;SHT31;66637;-29.628;-49.938;2023-06-22T01:46:51;16.27;83.95
77523;SHT31;66637;-29.628;-49.938;2023-06-22T01:49:23;16.27;84.02
77523;SHT31;66637;-29.628;-49.938;2023-06-22T01:51:54;16.29;83.65
77523;SHT31;66637;-29.628;-49.938;2023-06-22T01:54:26;16.31;83.92
77523;SHT31;66637;-29.628;-49.938;2023-06-22T01:57:00;16.26;83.86
77523;SHT31;66637;-29.628;-49.938;2023-06-22T01:59:48;16.33;83.77
77523;SHT31;66637;-29.628;-49.938;2023-06-22T02:02:22;16.30;83.71
77523;SHT31;66637;-29.628;-49.938;2023-06-22T02:05:01;16.23;83.86
77523;SHT31;66637;-29.628;-49.938;2023-06-22T02:07:39;16.19;84.30
77523;SHT31;66637;-29.628;-49.938;2023-06-22T02:10:15;16.08;84.37
77523;SHT31;66637;-29.628;-49.938;2023-06-22T02:13:24;16.06;84.58
77523;SHT31;66637;-29.628;-49.938;2023-06-22T02:15:56;16.09;84.47
77523;SHT31;66637;-29.628;-49.938;2023-06-22T02:18:29;16.20;84.14
77523;SHT31;66637;-29.628;-49.938;2023-06-22T02:21:00;16.26;83.94
77523;SHT31;66637;-29.628;-49.938;2023-06-22T02:23:32;16.23;84.24
77523;SHT31;66637;-29.628;-49.938;2023-06-22T02:26:06;16.29;84.21
77523;SHT31;66637;-29.628;-49.938;2023-06-22T02:28:37;16.29;84.12
77523;SHT31;66637;-29.628;-49.938;2023-06-22T02:31:09;16.27;84.27
77523;SHT31;66637;-29.628;-49.938;2023-06-22T02:34:07;16.31;84.51
77523;SHT31;66637;-29.628;-49.938;2023-06-22T02:36:38;16.23;84.42
77523;SHT31;66637;-29.628;-49.938;2023-06-22T02:39:10;16.17;84.41
77523;SHT31;66637;-29.628;-49.938;2023-06-22T02:41:41;16.16;84.30
77523;SHT31;66637;-29.628;-49.938;2023-06-22T02:44:26;16.21;84.42
77523;SHT31;66637;-29.628;-49.938;2023-06-22T02:47:22;16.23;84.51
77523;SHT31;66637;-29.628;-49.938;2023-06-22T02:49:58;16.29;84.49
77523;SHT31;66637;-29.628;-49.938;2023-06-22T02:52:35;16.36;84.53
77523;SHT31;66637;-29.628;-49.938;2023-06-22T02:55:09;16.41;84.65
77523;SHT31;66637;-29.628;-49.938;2023-06-22T02:57:45;16.41;84.53
77523;SHT31;66637;-29.628;-49.938;2023-06-22T03:00:18;16.41;84.59
77523;SHT31;66637;-29.628;-49.938;2023-06-22T03:02:50;16.37;84.69
77523;SHT31;66637;-29.628;-49.938;2023-06-22T03:05:28;16.40;84.67
77523;SHT31;66637;-29.628;-49.938;2023-06-22T03:08:00;16.41;84.72
77523;SHT31;66637;-29.628;-49.938;2023-06-22T03:10:34;16.36;84.62
77523;SHT31;66637;-29.628;-49.938;2023-06-22T03:13:08;16.36;84.57
77523;SHT31;66637;-29.628;-49.938;2023-06-22T03:15:39;16.41;84.51
77523;SHT31;66637;-29.628;-49.938;2023-06-22T03:18:09;16.31;84.39
77523;SHT31;66637;-29.628;-49.938;2023-06-22T03:20:40;16.24;84.53
77523;SHT31;66637;-29.628;-49.938;2023-06-22T03:23:12;16.21;84.31
77523;SHT31;66637;-29.628;-49.938;2023-06-22T03:25:43;16.17;84.32
77523;SHT31;66637;-29.628;-49.938;2023-06-22T03:28:17;16.21;84.44
77523;SHT31;66637;-29.628;-49.938;2023-06-22T03:30:47;16.20;84.37
77523;SHT31;66637;-29.628;-49.938;2023-06-22T03:33:21;16.21;84.33
77523;SHT31;66637;-29.628;-49.938;2023-06-22T03:35:52;16.26;84.45
77523;SHT31;66637;-29.628;-49.938;2023-06-22T03:38:24;16.21;84.49
77523;SHT31;66637;-29.628;-49.938;2023-06-22T03:41:06;16.23;84.54
77523;SHT31;66637;-29.628;-49.938;2023-06-22T03:43:37;16.24;84.46
77523;SHT31;66637;-29.628;-49.938;2023-06-22T03:46:08;16.17;84.93
77523;SHT31;66637;-29.628;-49.938;2023-06-22T03:48:38;16.17;84.48
77523;SHT31;66637;-29.628;-49.938;2023-06-22T03:51:10;16.21;84.96
77523;SHT31;66637;-29.628;-49.938;2023-06-22T03:53:52;16.16;84.75
77523;SHT31;66637;-29.628;-49.938;2023-06-22T03:56:24;16.24;84.57
77523;SHT31;66637;-29.628;-49.938;2023-06-22T03:59:00;16.19;84.49
77523;SHT31;66637;-29.628;-49.938;2023-06-22T04:01:30;16.17;84.20
77523;SHT31;66637;-29.628;-49.938;2023-06-22T04:04:02;16.19;84.09
77523;SHT31;66637;-29.628;-49.938;2023-06-22T04:06:37;16.13;84.18
77523;SHT31;66637;-29.628;-49.938;2023-06-22T04:09:07;16.09;84.14
77523;SHT31;66637;-29.628;-49.938;2023-06-22T04:11:40;16.08;84.03
77523;SHT31;66637;-29.628;-49.938;2023-06-22T04:14:16;16.12;83.74
77523;SHT31;66637;-29.628;-49.938;2023-06-22T04:16:51;16.10;83.56
77523;SHT31;66637;-29.628;-49.938;2023-06-22T04:19:25;16.14;83.23
77523;SHT31;66637;-29.628;-49.938;2023-06-22T04:21:57;16.13;83.26
77523;SHT31;66637;-29.628;-49.938;2023-06-22T04:24:30;16.05;83.42
77523;SHT31;66637;-29.628;-49.938;2023-06-22T04:27:36;16.08;83.47
77523;SHT31;66637;-29.628;-49.938;2023-06-22T04:30:11;16.03;83.11
77523;SHT31;66637;-29.628;-49.938;2023-06-22T04:33:07;16.03;83.02
77523;SHT31;66637;-29.628;-49.938;2023-06-22T04:35:39;16.02;82.83
77523;SHT31;66637;-29.628;-49.938;2023-06-22T04:38:14;16.02;82.81
77523;SHT31;66637;-29.628;-49.938;2023-06-22T04:40:49;16.02;82.56
77523;SHT31;66637;-29.628;-49.938;2023-06-22T04:43:47;16.02;82.18
77523;SHT31;66637;-29.628;-49.938;2023-06-22T04:46:27;15.99;81.79
77523;SHT31;66637;-29.628;-49.938;2023-06-22T04:49:14;15.96;81.70
77523;SHT31;66637;-29.628;-49.938;2023-06-22T04:51:51;15.92;81.49
77523;SHT31;66637;-29.628;-49.938;2023-06-22T04:54:25;15.95;81.51
77523;SHT31;66637;-29.628;-49.938;2023-06-22T04:57:09;15.92;81.39
77523;SHT31;66637;-29.628;-49.938;2023-06-22T04:59:47;15.93;80.98
77523;SHT31;66637;-29.628;-49.938;2023-06-22T05:02:28;15.95;80.99
77523;SHT31;66637;-29.628;-49.938;2023-06-22T05:05:24;16.03;80.82
77523;SHT31;66637;-29.628;-49.938;2023-06-22T05:08:20;16.02;80.46
77523;SHT31;66637;-29.628;-49.938;2023-06-22T05:11:09;16.06;79.99
77523;SHT31;66637;-29.628;-49.938;2023-06-22T05:13:44;16.00;80.20
77523;SHT31;66637;-29.628;-49.938;2023-06-22T05:16:25;15.98;80.95
77523;SHT31;66637;-29.628;-49.938;2023-06-22T05:19:14;15.82;81.60
77523;SHT31;66637;-29.628;-49.938;2023-06-22T05:21:52;15.76;81.98
77523;SHT31;66637;-29.628;-49.938;2023-06-22T05:24:51;15.76;82.04
77523;SHT31;66637;-29.628;-49.938;2023-06-22T05:27:37;15.69;82.16
77523;SHT31;66637;-29.628;-49.938;2023-06-22T05:30:19;15.62;82.30
77523;SHT31;66637;-29.628;-49.938;2023-06-22T05:32:57;15.59;82.34
77523;SHT31;66637;-29.628;-49.938;2023-06-22T05:35:48;15.49;82.69
77523;SHT31;66637;-29.628;-49.938;2023-06-22T05:38:29;15.42;83.08
77523;SHT31;66637;-29.628;-49.938;2023-06-22T05:41:11;15.48;83.45
77523;SHT31;66637;-29.628;-49.938;2023-06-22T05:44:00;15.55;82.58
77523;SHT31;66637;-29.628;-49.938;2023-06-22T05:46:45;15.61;82.48
77523;SHT31;66637;-29.628;-49.938;2023-06-22T05:49:34;15.65;82.11
77523;SHT31;66637;-29.628;-49.938;2023-06-22T05:52:22;15.70;81.39
77523;SHT31;66637;-29.628;-49.938;2023-06-22T05:55:17;15.79;81.32
77523;SHT31;66637;-29.628;-49.938;2023-06-22T05:58:04;15.85;81.58
77523;SHT31;66637;-29.628;-49.938;2023-06-22T06:00:50;15.92;80.97
77523;SHT31;66637;-29.628;-49.938;2023-06-22T06:03:31;15.95;80.66
77523;SHT31;66637;-29.628;-49.938;2023-06-22T06:06:09;15.98;81.13
77523;SHT31;66637;-29.628;-49.938;2023-06-22T06:09:19;15.98;80.70
77523;SHT31;66637;-29.628;-49.938;2023-06-22T06:12:09;15.99;80.00
77523;SHT31;66637;-29.628;-49.938;2023-06-22T06:14:46;16.06;78.90
77523;SHT31;66637;-29.628;-49.938;2023-06-22T06:17:48;16.20;78.25
77523;SHT31;66637;-29.628;-49.938;2023-06-22T06:20:38;16.24;77.75
77523;SHT31;66637;-29.628;-49.938;2023-06-22T06:23:31;16.27;76.86
77523;SHT31;66637;-29.628;-49.938;2023-06-22T06:26:21;16.36;76.36
77523;SHT31;66637;-29.628;-49.938;2023-06-22T06:29:01;16.31;76.41
77523;SHT31;66637;-29.628;-49.938;2023-06-22T06:32:28;16.36;75.84
77523;SHT31;66637;-29.628;-49.938;2023-06-22T06:35:12;16.41;76.25
77523;SHT31;66637;-29.628;-49.938;2023-06-22T06:37:57;16.44;75.68
77523;SHT31;66637;-29.628;-49.938;2023-06-22T06:40:44;16.59;77.77
77523;SHT31;66637;-29.628;-49.938;2023-06-22T06:43:26;16.54;77.72
77523;SHT31;66637;-29.628;-49.938;2023-06-22T06:46:35;16.59;76.72
77523;SHT31;66637;-29.628;-49.938;2023-06-22T06:49:07;16.56;76.91
77523;SHT31;66637;-29.628;-49.938;2023-06-22T06:51:54;16.53;76.30
77523;SHT31;66637;-29.628;-49.938;2023-06-22T06:54:30;16.60;75.67
77523;SHT31;66637;-29.628;-49.938;2023-06-22T06:57:15;16.59;75.90
77523;SHT31;66637;-29.628;-49.938;2023-06-22T07:00:12;16.56;76.36
77523;SHT31;66637;-29.628;-49.938;2023-06-22T07:03:20;16.54;75.60
77523;SHT31;66637;-29.628;-49.938;2023-06-22T07:06:31;16.53;74.51
77523;SHT31;66637;-29.628;-49.938;2023-06-22T07:09:07;16.54;72.78
77523;SHT31;66637;-29.628;-49.938;2023-06-22T07:11:52;16.59;72.57
77523;SHT31;66637;-29.628;-49.938;2023-06-22T07:15:09;16.71;71.56
77523;SHT31;66637;-29.628;-49.938;2023-06-22T07:17:52;16.96;68.47
77523;SHT31;66637;-29.628;-49.938;2023-06-22T07:20:59;16.91;69.04
77523;SHT31;66637;-29.628;-49.938;2023-06-22T07:23:56;16.81;70.10
77523;SHT31;66637;-29.628;-49.938;2023-06-22T07:26:59;16.72;70.60
77523;SHT31;66637;-29.628;-49.938;2023-06-22T07:29:41;16.68;70.05
77523;SHT31;66637;-29.628;-49.938;2023-06-22T07:32:43;16.67;70.04
77523;SHT31;66637;-29.628;-49.938;2023-06-22T07:35:51;16.61;69.79
77523;SHT31;66637;-29.628;-49.938;2023-06-22T07:38:39;16.59;70.66
77523;SHT31;66637;-29.628;-49.938;2023-06-22T07:41:33;16.56;70.86
77523;SHT31;66637;-29.628;-49.938;2023-06-22T07:44:39;16.57;71.59
77523;SHT31;66637;-29.628;-49.938;2023-06-22T07:47:42;16.60;71.88
77523;SHT31;66637;-29.628;-49.938;2023-06-22T07:50:52;16.65;73.21
77523;SHT31;66637;-29.628;-49.938;2023-06-22T07:53:44;16.67;75.89
77523;SHT31;66637;-29.628;-49.938;2023-06-22T07:56:30;16.74;76.41
77523;SHT31;66637;-29.628;-49.938;2023-06-22T07:59:41;16.78;77.32
77523;SHT31;66637;-29.628;-49.938;2023-06-22T08:02:52;16.75;77.91
77523;SHT31;66637;-29.628;-49.938;2023-06-22T08:06:26;16.72;78.11
77523;SHT31;66637;-29.628;-49.938;2023-06-22T08:09:53;16.75;77.25
77523;SHT31;66637;-29.628;-49.938;2023-06-22T08:12:30;16.74;78.17
77523;SHT31;66637;-29.628;-49.938;2023-06-22T08:15:15;16.74;78.46
77523;SHT31;66637;-29.628;-49.938;2023-06-22T08:17:48;16.84;76.23
77523;SHT31;66637;-29.628;-49.938;2023-06-22T08:21:18;16.89;76.73
77523;SHT31;66637;-29.628;-49.938;2023-06-22T08:24:06;16.88;76.29
77523;SHT31;66637;-29.628;-49.938;2023-06-22T08:27:18;16.94;75.28
77523;SHT31;66637;-29.628;-49.938;2023-06-22T08:30:13;17.00;75.51
77523;SHT31;66637;-29.628;-49.938;2023-06-22T08:33:08;17.02;75.39
77523;SHT31;66637;-29.628;-49.938;2023-06-22T08:35:59;16.95;76.83
77523;SHT31;66637;-29.628;-49.938;2023-06-22T08:38:41;16.94;76.47
77523;SHT31;66637;-29.628;-49.938;2023-06-22T08:41:28;16.92;77.33
77523;SHT31;66637;-29.628;-49.938;2023-06-22T08:44:40;16.94;77.45
77523;SHT31;66637;-29.628;-49.938;2023-06-22T08:47:36;16.94;77.11
77523;SHT31;66637;-29.628;-49.938;2023-06-22T08:50:19;16.91;77.67
77523;SHT31;66637;-29.628;-49.938;2023-06-22T08:53:02;16.85;77.89
77523;SHT31;66637;-29.628;-49.938;2023-06-22T08:56:13;16.84;78.04
77523;SHT31;66637;-29.628;-49.938;2023-06-22T08:59:17;16.85;77.89
77523;SHT31;66637;-29.628;-49.938;2023-06-22T09:01:58;16.84;78.23
77523;SHT31;66637;-29.628;-49.938;2023-06-22T09:04:51;16.82;78.19
77523;SHT31;66637;-29.628;-49.938;2023-06-22T09:07:45;16.80;78.25
77523;SHT31;66637;-29.628;-49.938;2023-06-22T09:10:51;16.82;78.16
77523;SHT31;66637;-29.628;-49.938;2023-06-22T09:13:44;16.77;78.44
77523;SHT31;66637;-29.628;-49.938;2023-06-22T09:16:32;16.78;78.46
77523;SHT31;66637;-29.628;-49.938;2023-06-22T09:19:29;16.80;78.44
77523;SHT31;66637;-29.628;-49.938;2023-06-22T09:22:00;16.77;78.53
77523;SHT31;66637;-29.628;-49.938;2023-06-22T09:24:30;16.75;78.39
77523;SHT31;66637;-29.628;-49.938;2023-06-22T09:27:01;16.78;78.06
77523;SHT31;66637;-29.628;-49.938;2023-06-22T09:29:31;16.81;78.20
77523;SHT31;66637;-29.628;-49.938;2023-06-22T09:32:05;16.81;78.11
77523;SHT31;66637;-29.628;-49.938;2023-06-22T09:34:36;16.85;78.10
77523;SHT31;66637;-29.628;-49.938;2023-06-22T09:37:06;16.84;78.19
77523;SHT31;66637;-29.628;-49.938;2023-06-22T09:39:37;16.84;78.56
77523;SHT31;66637;-29.628;-49.938;2023-06-22T09:42:08;16.85;77.88
77523;SHT31;66637;-29.628;-49.938;2023-06-22T09:44:38;16.87;78.25
77523;SHT31;66637;-29.628;-49.938;2023-06-22T09:47:09;16.87;78.10
77523;SHT31;66637;-29.628;-49.938;2023-06-22T09:49:40;16.92;78.72
77523;SHT31;66637;-29.628;-49.938;2023-06-22T09:52:15;17.00;78.41
77523;SHT31;66637;-29.628;-49.938;2023-06-22T09:54:45;16.92;78.57
77523;SHT31;66637;-29.628;-49.938;2023-06-22T09:57:15;16.89;78.05
77523;SHT31;66637;-29.628;-49.938;2023-06-22T09:59:46;16.89;78.03
77523;SHT31;66637;-29.628;-49.938;2023-06-22T10:02:18;16.98;77.06
77523;SHT31;66637;-29.628;-49.938;2023-06-22T10:04:48;17.12;76.58
77523;SHT31;66637;-29.628;-49.938;2023-06-22T10:07:23;17.11;76.60
77523;SHT31;66637;-29.628;-49.938;2023-06-22T10:10:24;17.08;76.53
77523;SHT31;66637;-29.628;-49.938;2023-06-22T10:13:17;16.92;76.82
77523;SHT31;66637;-29.628;-49.938;2023-06-22T10:16:10;16.85;77.09
77523;SHT31;66637;-29.628;-49.938;2023-06-22T10:19:17;16.82;77.15
77523;SHT31;66637;-29.628;-49.938;2023-06-22T10:22:07;16.80;77.14
77523;SHT31;66637;-29.628;-49.938;2023-06-22T10:24:49;16.80;77.18
77523;SHT31;66637;-29.628;-49.938;2023-06-22T10:27:46;16.77;77.11
77523;SHT31;66637;-29.628;-49.938;2023-06-22T10:30:20;16.80;77.31
77523;SHT31;66637;-29.628;-49.938;2023-06-22T10:33:45;16.82;77.55
77523;SHT31;66637;-29.628;-49.938;2023-06-22T10:36:53;16.84;77.35
77523;SHT31;66637;-29.628;-49.938;2023-06-22T10:39:43;16.87;77.30
77523;SHT31;66637;-29.628;-49.938;2023-06-22T10:42:35;16.98;77.10
77523;SHT31;66637;-29.628;-49.938;2023-06-22T10:45:20;17.14;77.42
77523;SHT31;66637;-29.628;-49.938;2023-06-22T10:48:19;17.31;76.82
77523;SHT31;66637;-29.628;-49.938;2023-06-22T10:50:51;17.49;76.80
77523;SHT31;66637;-29.628;-49.938;2023-06-22T10:54:23;17.75;76.08
77523;SHT31;66637;-29.628;-49.938;2023-06-22T10:57:09;17.79;76.20
77523;SHT31;66637;-29.628;-49.938;2023-06-22T10:59:56;17.85;75.55
77523;SHT31;66637;-29.628;-49.938;2023-06-22T11:02:43;17.91;75.69
77523;SHT31;66637;-29.628;-49.938;2023-06-22T11:05:40;17.93;76.08
77523;SHT31;66637;-29.628;-49.938;2023-06-22T11:08:13;17.94;75.58
77523;SHT31;66637;-29.628;-49.938;2023-06-22T11:11:00;18.03;75.58
77523;SHT31;66637;-29.628;-49.938;2023-06-22T11:13:50;18.04;75.68
77523;SHT31;66637;-29.628;-49.938;2023-06-22T11:16:58;18.01;76.52
77523;SHT31;66637;-29.628;-49.938;2023-06-22T11:19:32;18.03;76.62
77523;SHT31;66637;-29.628;-49.938;2023-06-22T11:22:18;18.04;76.76
77523;SHT31;66637;-29.628;-49.938;2023-06-22T11:25:02;18.03;77.58
77523;SHT31;66637;-29.628;-49.938;2023-06-22T11:27:51;18.03;77.93
77523;SHT31;66637;-29.628;-49.938;2023-06-22T11:30:51;18.06;78.36
77523;SHT31;66637;-29.628;-49.938;2023-06-22T11:33:55;18.00;78.03
77523;SHT31;66637;-29.628;-49.938;2023-06-22T11:36:46;18.04;78.20
77523;SHT31;66637;-29.628;-49.938;2023-06-22T11:39:34;18.03;78.92
77523;SHT31;66637;-29.628;-49.938;2023-06-22T11:42:29;18.03;79.40
77523;SHT31;66637;-29.628;-49.938;2023-06-22T11:45:51;17.97;80.37
77523;SHT31;66637;-29.628;-49.938;2023-06-22T11:48:46;17.98;80.15
77523;SHT31;66637;-29.628;-49.938;2023-06-22T11:51:42;18.18;79.60
77523;SHT31;66637;-29.628;-49.938;2023-06-22T11:54:39;18.57;79.06
77523;SHT31;66637;-29.628;-49.938;2023-06-22T11:57:51;18.55;78.60
77523;SHT31;66637;-29.628;-49.938;2023-06-22T12:00:25;18.48;78.64
77523;SHT31;66637;-29.628;-49.938;2023-06-22T12:03:16;18.41;79.05
77523;SHT31;66637;-29.628;-49.938;2023-06-22T12:06:07;18.33;79.58
77523;SHT31;66637;-29.628;-49.938;2023-06-22T12:09:12;18.26;80.14
77523;SHT31;66637;-29.628;-49.938;2023-06-22T12:12:29;18.24;80.08
77523;SHT31;66637;-29.628;-49.938;2023-06-22T12:15:10;18.21;80.27
77523;SHT31;66637;-29.628;-49.938;2023-06-22T12:17:50;18.34;79.96
77523;SHT31;66637;-29.628;-49.938;2023-06-22T12:20:51;18.48;79.68
77523;SHT31;66637;-29.628;-49.938;2023-06-22T12:23:36;18.57;79.84
77523;SHT31;66637;-29.628;-49.938;2023-06-22T12:26:49;18.40;80.40
77523;SHT31;66637;-29.628;-49.938;2023-06-22T12:29:27;18.30;80.14
77523;SHT31;66637;-29.628;-49.938;2023-06-22T12:32:18;18.26;80.31
77523;SHT31;66637;-29.628;-49.938;2023-06-22T12:35:15;18.72;79.36
77523;SHT31;66637;-29.628;-49.938;2023-06-22T12:38:13;18.73;79.00
77523;SHT31;66637;-29.628;-49.938;2023-06-22T12:41:05;18.55;79.71
77523;SHT31;66637;-29.628;-49.938;2023-06-22T12:44:05;18.49;79.75
77523;SHT31;66637;-29.628;-49.938;2023-06-22T12:47:32;18.54;80.09
77523;SHT31;66637;-29.628;-49.938;2023-06-22T12:50:25;18.52;80.32
77523;SHT31;66637;-29.628;-49.938;2023-06-22T12:53:08;18.45;80.74
77523;SHT31;66637;-29.628;-49.938;2023-06-22T12:56:01;18.31;80.96
77523;SHT31;66637;-29.628;-49.938;2023-06-22T12:58:37;18.40;80.82
77523;SHT31;66637;-29.628;-49.938;2023-06-22T13:02:08;18.61;80.49
77523;SHT31;66637;-29.628;-49.938;2023-06-22T13:04:49;18.89;79.55
77523;SHT31;66637;-29.628;-49.938;2023-06-22T13:08:04;19.15;79.04
77523;SHT31;66637;-29.628;-49.938;2023-06-22T13:10:55;19.43;78.57
77523;SHT31;66637;-29.628;-49.938;2023-06-22T13:14:09;19.54;77.89
77523;SHT31;66637;-29.628;-49.938;2023-06-22T13:16:56;19.70;75.75
77523;SHT31;66637;-29.628;-49.938;2023-06-22T13:19:55;19.70;77.86
77523;SHT31;66637;-29.628;-49.938;2023-06-22T13:22:44;19.78;77.43
77523;SHT31;66637;-29.628;-49.938;2023-06-22T13:25:38;19.49;78.23
77523;SHT31;66637;-29.628;-49.938;2023-06-22T13:28:25;19.37;79.71
77523;SHT31;66637;-29.628;-49.938;2023-06-22T13:31:30;20.15;78.19
77523;SHT31;66637;-29.628;-49.938;2023-06-22T13:34:17;20.35;75.58
77523;SHT31;66637;-29.628;-49.938;2023-06-22T13:37:05;20.36;75.56
77523;SHT31;66637;-29.628;-49.938;2023-06-22T13:39:52;20.61;75.87
77523;SHT31;66637;-29.628;-49.938;2023-06-22T13:42:59;20.71;75.14
77523;SHT31;66637;-29.628;-49.938;2023-06-22T13:46:04;21.07;73.88
77523;SHT31;66637;-29.628;-49.938;2023-06-22T13:49:00;20.86;74.52
77523;SHT31;66637;-29.628;-49.938;2023-06-22T13:51:37;20.34;76.38
77523;SHT31;66637;-29.628;-49.938;2023-06-22T13:54:40;20.77;75.36
77523;SHT31;66637;-29.628;-49.938;2023-06-22T13:57:31;20.41;76.28
77523;SHT31;66637;-29.628;-49.938;2023-06-22T14:00:07;20.28;77.51
77523;SHT31;66637;-29.628;-49.938;2023-06-22T14:03:11;20.42;76.76
77523;SHT31;66637;-29.628;-49.938;2023-06-22T14:05:56;20.76;75.49
77523;SHT31;66637;-29.628;-49.938;2023-06-22T14:08:55;21.04;75.33
77523;SHT31;66637;-29.628;-49.938;2023-06-22T14:12:07;21.82;72.48
77523;SHT31;66637;-29.628;-49.938;2023-06-22T14:15:01;22.52;69.08
77523;SHT31;66637;-29.628;-49.938;2023-06-22T14:17:45;22.16;69.65
77523;SHT31;66637;-29.628;-49.938;2023-06-22T14:20:29;21.90;71.11
77523;SHT31;66637;-29.628;-49.938;2023-06-22T14:23:27;21.91;71.57
77523;SHT31;66637;-29.628;-49.938;2023-06-22T14:26:08;21.84;71.61
77523;SHT31;66637;-29.628;-49.938;2023-06-22T14:29:18;21.61;71.65
77523;SHT31;66637;-29.628;-49.938;2023-06-22T14:32:04;21.47;72.26
77523;SHT31;66637;-29.628;-49.938;2023-06-22T14:34:54;21.26;72.44
77523;SHT31;66637;-29.628;-49.938;2023-06-22T14:38:10;21.13;73.39
77523;SHT31;66637;-29.628;-49.938;2023-06-22T14:41:00;21.06;72.80
77523;SHT31;66637;-29.628;-49.938;2023-06-22T14:43:48;21.26;72.95
77523;SHT31;66637;-29.628;-49.938;2023-06-22T14:47:17;21.24;72.75
77523;SHT31;66637;-29.628;-49.938;2023-06-22T14:50:05;21.24;72.33
77523;SHT31;66637;-29.628;-49.938;2023-06-22T14:52:56;21.19;73.10
77523;SHT31;66637;-29.628;-49.938;2023-06-22T14:56:06;21.09;73.27
77523;SHT31;66637;-29.628;-49.938;2023-06-22T14:59:25;21.16;73.23
77523;SHT31;66637;-29.628;-49.938;2023-06-22T15:02:03;21.10;73.19
77523;SHT31;66637;-29.628;-49.938;2023-06-22T15:04:42;21.29;73.32
77523;SHT31;66637;-29.628;-49.938;2023-06-22T15:07:20;21.33;72.85
77523;SHT31;66637;-29.628;-49.938;2023-06-22T15:10:33;21.43;73.13
77523;SHT31;66637;-29.628;-49.938;2023-06-22T15:13:13;21.57;73.03
77523;SHT31;66637;-29.628;-49.938;2023-06-22T15:16:30;21.71;72.18
77523;SHT31;66637;-29.628;-49.938;2023-06-22T15:19:31;21.77;72.23
77523;SHT31;66637;-29.628;-49.938;2023-06-22T15:22:31;21.78;71.56
77523;SHT31;66637;-29.628;-49.938;2023-06-22T15:25:27;21.78;72.50
77523;SHT31;66637;-29.628;-49.938;2023-06-22T15:28:36;21.50;74.43
77523;SHT31;66637;-29.628;-49.938;2023-06-22T15:31:35;21.13;75.48
77523;SHT31;66637;-29.628;-49.938;2023-06-22T15:34:51;21.16;75.20
77523;SHT31;66637;-29.628;-49.938;2023-06-22T15:38:01;21.27;72.64
77523;SHT31;66637;-29.628;-49.938;2023-06-22T15:40:48;21.27;72.44
77523;SHT31;66637;-29.628;-49.938;2023-06-22T15:43:45;21.30;73.10
77523;SHT31;66637;-29.628;-49.938;2023-06-22T15:46:58;21.22;72.07
77523;SHT31;66637;-29.628;-49.938;2023-06-22T15:50:07;21.13;72.47
77523;SHT31;66637;-29.628;-49.938;2023-06-22T15:53:32;21.16;72.49
77523;SHT31;66637;-29.628;-49.938;2023-06-22T15:56:23;21.26;72.18
77523;SHT31;66637;-29.628;-49.938;2023-06-22T15:59:32;21.24;72.22
77523;SHT31;66637;-29.628;-49.938;2023-06-22T16:02:31;21.19;72.32
77523;SHT31;66637;-29.628;-49.938;2023-06-22T16:05:25;21.16;71.93
77523;SHT31;66637;-29.628;-49.938;2023-06-22T16:08:16;21.13;72.70
77523;SHT31;66637;-29.628;-49.938;2023-06-22T16:11:05;21.20;72.48
77523;SHT31;66637;-29.628;-49.938;2023-06-22T16:13:45;21.34;72.16
77523;SHT31;66637;-29.628;-49.938;2023-06-22T16:16:56;21.77;70.54
77523;SHT31;66637;-29.628;-49.938;2023-06-22T16:20:09;22.31;70.32
77523;SHT31;66637;-29.628;-49.938;2023-06-22T16:23:09;22.48;69.42
77523;SHT31;66637;-29.628;-49.938;2023-06-22T16:25:56;22.42;69.43
77523;SHT31;66637;-29.628;-49.938;2023-06-22T16:28:44;22.32;70.32
77523;SHT31;66637;-29.628;-49.938;2023-06-22T16:31:40;22.13;71.97
77523;SHT31;66637;-29.628;-49.938;2023-06-22T16:34:28;21.90;71.76
77523;SHT31;66637;-29.628;-49.938;2023-06-22T16:37:16;21.81;71.90
77523;SHT31;66637;-29.628;-49.938;2023-06-22T16:40:05;21.73;72.10
77523;SHT31;66637;-29.628;-49.938;2023-06-22T16:42:50;21.46;72.85
77523;SHT31;66637;-29.628;-49.938;2023-06-22T16:46:15;21.34;74.22
77523;SHT31;66637;-29.628;-49.938;2023-06-22T16:49:02;21.50;73.62
77523;SHT31;66637;-29.628;-49.938;2023-06-22T16:52:03;21.53;73.72
77523;SHT31;66637;-29.628;-49.938;2023-06-22T16:54:52;21.48;73.77
77523;SHT31;66637;-29.628;-49.938;2023-06-22T16:57:41;21.40;73.89
77523;SHT31;66637;-29.628;-49.938;2023-06-22T17:00:32;21.62;72.68